Time;durP1;ratioP1;P1;durP2;ratioP2;P2;SDS_P1;SDS_P2;PMS_P1;PMS_P2;Temp;Humidity;BMP_temperature;BMP_pressure;BME280_temperature;BME280_humidity;BME280_pressure;Samples;Min_cycle;Max_cycle;Signal;HPM_P1;HPM_P2
2023/09/12 00:02:50;;;;;;;;;30.00;26.00;;;;;22.97;100.00;98507.41;6273617;27;96483;-67
2023/09/12 00:05:53;;;;;;;;;30.00;27.20;;;;;22.89;100.00;98504.25;6278268;27;96485;-67
2023/09/12 00:08:57;;;;;;;;;28.40;27.40;;;;;22.85;100.00;98499.69;6268451;27;96732;-67
2023/09/12 00:12:00;;;;;;;;;32.00;29.00;;;;;22.83;100.00;98499.19;6267923;27;96674;-67
2023/09/12 00:15:04;;;;;;;;;31.50;29.00;;;;;22.76;100.00;98499.63;6269008;27;96340;-67
2023/09/12 00:18:09;;;;;;;;;29.40;28.00;;;;;22.76;100.00;98499.63;6285220;27;96433;-67
2023/09/12 00:21:12;;;;;;;;;29.20;27.20;;;;;22.77;100.00;98501.22;6287643;27;96420;-67
2023/09/12 00:24:16;;;;;;;;;29.80;27.20;;;;;22.78;100.00;98500.13;6287271;27;96586;-67
2023/09/12 00:27:19;;;;;;;;;29.40;27.60;;;;;22.78;100.00;98502.03;6263556;27;96666;-67
2023/09/12 00:30:22;;;;;;;;;29.60;27.60;;;;;22.76;100.00;98504.31;6243995;27;96511;-67
2023/09/12 00:33:27;;;;;;;;;27.60;25.00;;;;;22.74;100.00;98504.59;6261886;27;96534;-67
2023/09/12 00:36:32;;;;;;;;;29.00;24.40;;;;;22.77;100.00;98509.47;6226456;27;96500;-67
2023/09/12 00:39:36;;;;;;;;;28.00;25.75;;;;;22.77;100.00;98497.69;6286407;27;96341;-67
2023/09/12 00:42:39;;;;;;;;;30.00;28.00;;;;;22.77;100.00;98512.22;6286295;27;96376;-67
2023/09/12 00:45:43;;;;;;;;;30.00;26.00;;;;;22.75;100.00;98503.50;6244690;27;96320;-67
2023/09/12 00:48:50;;;;;;;;;26.20;24.80;;;;;22.75;100.00;98509.00;6278409;27;97037;-66
2023/09/12 00:51:53;;;;;;;;;27.33;25.33;;;;;22.71;100.00;98507.16;6279396;27;97947;-67
2023/09/12 00:54:57;;;;;;;;;27.60;26.40;;;;;22.69;100.00;98501.13;6285646;27;96365;-67
2023/09/12 00:58:02;;;;;;;;;24.50;23.50;;;;;22.63;100.00;98502.34;6253834;27;96317;-67
2023/09/12 01:01:06;;;;;;;;;25.80;24.00;;;;;22.57;100.00;98500.88;6286228;27;96814;-67
2023/09/12 01:04:11;;;;;;;;;26.00;25.00;;;;;22.49;100.00;98496.91;6284308;27;96989;-67
2023/09/12 01:07:35;;;;;;;;;27.40;24.40;;;;;22.47;100.00;98499.16;6277673;27;96468;-67
2023/09/12 01:10:38;;;;;;;;;24.50;23.00;;;;;22.46;100.00;98490.13;6223857;27;98736;-67
2023/09/12 01:13:41;;;;;;;;;29.00;25.00;;;;;22.39;100.00;98499.88;6241027;27;97101;-67
2023/09/12 01:16:44;;;;;;;;;28.25;24.00;;;;;22.37;100.00;98475.47;6260539;27;96494;-67
2023/09/12 01:19:49;;;;;;;;;27.00;25.00;;;;;22.40;100.00;98487.78;6263382;27;97655;-67
2023/09/12 01:23:20;;;;;;;;;26.00;23.00;;;;;22.39;100.00;98492.44;6265610;27;96579;-67
2023/09/12 01:26:31;;;;;;;;;25.00;23.00;;;;;22.37;100.00;98486.47;6255403;27;96859;-67
2023/09/12 01:29:36;;;;;;;;;25.80;24.80;;;;;22.39;100.00;98494.38;6249281;27;96464;-67
2023/09/12 01:32:40;;;;;;;;;25.25;22.25;;;;;22.40;100.00;98491.34;6264521;27;96641;-67
2023/09/12 01:35:46;;;;;;;;;25.00;22.50;;;;;22.37;100.00;98494.72;6247695;27;96748;-66
2023/09/12 01:38:49;;;;;;;;;24.00;22.60;;;;;22.36;100.00;98498.56;6273892;27;96547;-67
2023/09/12 01:41:55;;;;;;;;;27.00;25.00;;;;;22.32;100.00;98494.00;6265422;27;99044;-67
2023/09/12 01:45:01;;;;;;;;;24.20;23.00;;;;;22.35;100.00;98499.69;6246763;27;96650;-67
2023/09/12 01:48:07;;;;;;;;;28.60;25.80;;;;;22.32;100.00;98503.06;6259464;27;96589;-67
2023/09/12 01:51:11;;;;;;;;;25.25;22.00;;;;;22.32;100.00;98497.56;6263383;27;97015;-67
2023/09/12 01:54:15;;;;;;;;;27.20;24.40;;;;;22.32;100.00;98497.56;6247405;27;96272;-67
2023/09/12 01:57:20;;;;;;;;;23.00;21.25;;;;;22.25;100.00;98493.59;6245874;27;97022;-66
2023/09/12 02:00:25;;;;;;;;;28.00;24.00;;;;;22.21;100.00;98495.34;6264421;27;96862;-67
2023/09/12 02:03:29;;;;;;;;;21.00;19.00;;;;;22.17;100.00;98499.81;6246392;27;96375;-67
2023/09/12 02:06:33;;;;;;;;;26.60;23.60;;;;;22.11;100.00;98485.38;6245951;27;96310;-67
2023/09/12 02:09:36;;;;;;;;;25.40;21.20;;;;;22.16;100.00;98495.44;6276901;27;97068;-67
2023/09/12 02:12:40;;;;;;;;;22.40;21.00;;;;;22.15;100.00;98500.13;6263014;27;96333;-67
2023/09/12 02:15:45;;;;;;;;;24.40;21.40;;;;;22.16;100.00;98500.94;6264410;27;96945;-67
2023/09/12 02:18:48;;;;;;;;;22.00;21.00;;;;;22.19;100.00;98498.38;6270577;27;96363;-67
2023/09/12 02:21:52;;;;;;;;;23.00;22.00;;;;;22.22;100.00;98492.28;6270072;27;98410;-67
2023/09/12 02:24:55;;;;;;;;;25.00;21.80;;;;;22.24;100.00;98498.28;6280281;27;96449;-67
2023/09/12 02:27:58;;;;;;;;;23.00;22.00;;;;;22.23;100.00;98504.09;6271651;27;96971;-67
2023/09/12 02:31:03;;;;;;;;;22.00;20.50;;;;;22.19;100.00;98492.88;6282930;27;96549;-67
2023/09/12 02:34:06;;;;;;;;;22.20;21.00;;;;;22.15;100.00;98497.38;6251723;27;96838;-66
2023/09/12 02:37:10;;;;;;;;;22.00;20.40;;;;;22.10;100.00;98494.72;6262162;27;96644;-67
2023/09/12 02:40:14;;;;;;;;;21.60;19.60;;;;;22.02;100.00;98488.03;6246904;27;96681;-67
2023/09/12 02:43:17;;;;;;;;;23.75;22.25;;;;;21.92;100.00;98493.69;6263601;27;96815;-67
2023/09/12 02:46:22;;;;;;;;;22.80;21.20;;;;;21.90;100.00;98495.91;6270385;27;96420;-67
2023/09/12 02:49:25;;;;;;;;;22.00;21.00;;;;;21.91;100.00;98500.31;6250734;27;96808;-67
2023/09/12 02:52:28;;;;;;;;;22.00;21.00;;;;;21.88;100.00;98500.09;6261260;27;97451;-67
2023/09/12 02:55:32;;;;;;;;;23.00;21.40;;;;;21.84;100.00;98494.41;6245600;27;96618;-67
2023/09/12 02:58:35;;;;;;;;;22.00;20.60;;;;;21.79;100.00;98499.19;6255420;27;96932;-67
2023/09/12 03:01:39;;;;;;;;;26.25;22.75;;;;;21.76;100.00;98497.84;6252074;27;98405;-67
2023/09/12 03:04:43;;;;;;;;;20.80;19.80;;;;;21.77;100.00;98498.66;6243392;27;96473;-67
2023/09/12 03:07:47;;;;;;;;;22.40;20.40;;;;;21.73;100.00;98492.16;6247403;27;96976;-67
2023/09/12 03:10:55;;;;;;;;;23.60;21.60;;;;;21.67;100.00;98496.94;6278965;27;96572;-67
2023/09/12 03:13:58;;;;;;;;;22.40;21.40;;;;;21.67;100.00;98498.84;6226505;27;96762;-67
2023/09/12 03:17:03;;;;;;;;;21.60;20.60;;;;;21.65;100.00;98495.63;6225858;27;97907;-67
2023/09/12 03:20:08;;;;;;;;;23.00;21.00;;;;;21.60;100.00;98502.00;6259204;27;97118;-67
2023/09/12 03:23:12;;;;;;;;;25.00;23.00;;;;;21.57;100.00;98497.13;6267667;27;96374;-66
2023/09/12 03:26:15;;;;;;;;;26.80;24.40;;;;;21.55;100.00;98491.94;6274356;27;96365;-67
2023/09/12 03:29:18;;;;;;;;;24.00;23.60;;;;;21.54;100.00;98490.31;6280075;27;96592;-66
2023/09/12 03:32:24;;;;;;;;;20.75;19.75;;;;;21.54;100.00;98503.22;6249247;27;97468;-66
2023/09/12 03:35:28;;;;;;;;;23.20;22.20;;;;;21.51;100.00;98504.63;6259299;27;96701;-68
2023/09/12 03:38:32;;;;;;;;;22.25;22.00;;;;;21.50;100.00;98500.25;6261586;27;96687;-67
2023/09/12 03:41:36;;;;;;;;;23.00;21.00;;;;;21.52;100.00;98506.25;6261842;27;98165;-67
2023/09/12 03:44:39;;;;;;;;;21.40;20.00;;;;;21.55;100.00;98507.59;6244117;27;96478;-67
2023/09/12 03:47:46;;;;;;;;;23.00;22.00;;;;;21.58;100.00;98506.97;6265044;27;96904;-67
2023/09/12 03:50:51;;;;;;;;;25.00;22.00;;;;;21.58;100.00;98509.72;6247195;27;96844;-67
2023/09/12 03:53:54;;;;;;;;;24.00;22.00;;;;;21.54;100.00;98509.53;6248021;27;97739;-67
2023/09/12 03:56:58;;;;;;;;;25.00;23.00;;;;;21.51;100.00;98512.03;6254644;27;96464;-67
2023/09/12 04:00:04;;;;;;;;;22.60;22.00;;;;;21.45;100.00;98507.78;6257549;27;96478;-67
2023/09/12 04:03:17;;;;;;;;;20.00;19.00;;;;;21.44;100.00;98508.88;6274491;27;96567;-67
2023/09/12 04:06:20;;;;;;;;;24.00;21.00;;;;;21.44;100.00;98512.44;6265544;27;96924;-67
2023/09/12 04:09:23;;;;;;;;;23.00;21.00;;;;;21.44;100.00;98515.19;6263459;27;97502;-67
2023/09/12 04:12:27;;;;;;;;;20.60;18.60;;;;;21.51;100.00;98512.03;6277877;27;96325;-67
2023/09/12 04:15:30;;;;;;;;;23.50;22.00;;;;;21.50;100.00;98511.22;6236977;27;98729;-67
2023/09/12 04:18:35;;;;;;;;;21.00;20.00;;;;;21.42;100.00;98511.09;6253186;27;97528;-67
2023/09/12 04:21:38;;;;;;;;;20.25;18.00;;;;;21.31;100.00;98509.66;6286363;27;96406;-67
2023/09/12 04:24:42;;;;;;;;;24.00;22.00;;;;;21.09;100.00;98497.38;6260723;27;96444;-67
2023/09/12 04:27:45;;;;;;;;;24.40;22.60;;;;;21.13;100.00;98509.41;6263691;27;96937;-67
2023/09/12 04:30:49;;;;;;;;;21.60;21.00;;;;;21.10;100.00;98518.22;6259947;27;96934;-67
2023/09/12 04:33:55;;;;;;;;;23.20;21.80;;;;;21.14;100.00;98515.69;6253514;27;97062;-67
2023/09/12 04:36:58;;;;;;;;;23.25;22.25;;;;;21.20;100.00;98517.25;6268005;27;97622;-67
2023/09/12 04:40:05;;;;;;;;;24.00;21.75;;;;;21.29;100.00;98518.19;6255656;27;96990;-67
2023/09/12 04:43:08;;;;;;;;;21.00;20.00;;;;;21.37;100.00;98516.69;6261673;27;96505;-67
2023/09/12 04:46:11;;;;;;;;;25.00;23.00;;;;;21.41;100.00;98515.78;6262421;27;97556;-67
2023/09/12 04:49:16;;;;;;;;;23.00;22.00;;;;;21.47;100.00;98511.00;6278097;27;96590;-67
2023/09/12 04:52:19;;;;;;;;;25.60;23.60;;;;;21.51;100.00;98512.84;6245487;27;97634;-67
2023/09/12 04:55:23;;;;;;;;;22.00;21.00;;;;;21.64;100.00;98515.94;6245792;27;96740;-67
2023/09/12 04:58:26;;;;;;;;;25.20;23.80;;;;;21.77;100.00;98521.44;6259314;27;96757;-67
2023/09/12 05:01:29;;;;;;;;;23.25;22.25;;;;;21.86;100.00;98519.59;6247834;27;96899;-67
2023/09/12 05:04:34;;;;;;;;;23.40;20.40;;;;;21.96;100.00;98521.38;6261474;27;96779;-67
2023/09/12 05:07:37;;;;;;;;;24.80;23.80;;;;;22.07;100.00;98522.81;6249521;27;96554;-67
2023/09/12 05:10:41;;;;;;;;;24.40;22.40;;;;;22.18;100.00;98526.97;6238739;27;98529;-67
2023/09/12 05:13:44;;;;;;;;;26.40;23.40;;;;;22.34;100.00;98525.53;6264769;27;97013;-68
2023/09/12 05:16:47;;;;;;;;;23.67;22.00;;;;;22.51;100.00;98526.81;6259560;27;97105;-68
2023/09/12 05:19:52;;;;;;;;;23.40;22.00;;;;;22.69;100.00;98517.63;6245691;27;96776;-68
2023/09/12 05:22:55;;;;;;;;;20.40;19.00;;;;;22.84;100.00;98520.06;6269443;27;97172;-67
2023/09/12 05:26:00;;;;;;;;;22.00;21.00;;;;;22.92;100.00;98519.31;6247400;27;98432;-67
2023/09/12 05:29:05;;;;;;;;;24.60;23.60;;;;;23.00;100.00;98515.81;6245544;27;96967;-68
2023/09/12 05:32:09;;;;;;;;;25.00;21.00;;;;;23.07;100.00;98527.19;6239580;27;98958;-67
2023/09/12 05:35:14;;;;;;;;;20.75;20.00;;;;;23.24;100.00;98530.06;6243671;27;98509;-68
2023/09/12 05:38:26;;;;;;;;;26.60;24.40;;;;;23.36;100.00;98539.72;6250656;27;96794;-67
2023/09/12 05:41:29;;;;;;;;;21.20;20.00;;;;;23.48;100.00;98539.97;6239171;27;97001;-67
2023/09/12 05:44:33;;;;;;;;;22.00;20.00;;;;;23.64;100.00;98541.22;6246997;27;97650;-67
2023/09/12 05:47:36;;;;;;;;;22.60;21.00;;;;;23.83;100.00;98546.47;6254182;27;97270;-68
2023/09/12 05:50:41;;;;;;;;;19.25;18.00;;;;;24.05;100.00;98543.66;6241612;27;96666;-68
2023/09/12 05:53:44;;;;;;;;;24.00;21.00;;;;;24.26;100.00;98544.75;6275093;27;96885;-68
2023/09/12 05:56:48;;;;;;;;;21.00;19.00;;;;;24.47;100.00;98547.72;6258326;27;96731;-68
2023/09/12 05:59:51;;;;;;;;;20.00;18.80;;;;;24.63;100.00;98543.34;6241180;27;98949;-68
2023/09/12 06:02:55;;;;;;;;;19.00;18.00;;;;;24.80;100.00;98542.59;6264947;27;96619;-68
2023/09/12 06:06:00;;;;;;;;;23.00;22.50;;;;;24.99;100.00;98540.34;6266885;27;96314;-68
2023/09/12 06:09:03;;;;;;;;;19.75;19.00;;;;;25.18;100.00;98549.09;6275441;27;96579;-68
2023/09/12 06:12:07;;;;;;;;;21.00;19.00;;;;;25.38;100.00;98551.19;6249692;27;98651;-68
2023/09/12 06:15:11;;;;;;;;;19.00;17.00;;;;;25.61;100.00;98565.63;6278323;27;96596;-68
2023/09/12 06:18:14;;;;;;;;;22.00;20.60;;;;;25.93;100.00;98567.03;6270402;27;97136;-68
2023/09/12 06:21:21;;;;;;;;;22.00;19.40;;;;;26.13;100.00;98555.25;6288181;27;96792;-68
2023/09/12 06:24:24;;;;;;;;;18.00;16.75;;;;;26.42;100.00;98573.84;6254085;27;97705;-68
2023/09/12 06:27:27;;;;;;;;;19.20;17.80;;;;;26.69;100.00;98569.78;6271580;27;96354;-69
2023/09/12 06:30:30;;;;;;;;;19.00;18.00;;;;;26.87;100.00;98576.88;6276054;27;96483;-68
2023/09/12 06:33:34;;;;;;;;;17.50;16.25;;;;;26.97;100.00;98583.94;6263852;27;97142;-68
2023/09/12 06:36:41;;;;;;;;;21.00;19.00;;;;;27.06;100.00;98579.16;6246496;27;96360;-68
2023/09/12 06:39:44;;;;;;;;;22.00;18.40;;;;;27.17;100.00;98585.09;6264333;27;96953;-68
2023/09/12 06:42:48;;;;;;;;;18.40;17.00;;;;;27.35;100.00;98581.03;6248330;27;96407;-68
2023/09/12 06:45:51;;;;;;;;;18.00;17.00;;;;;27.54;100.00;98578.59;6245875;27;97427;-68
2023/09/12 06:48:54;;;;;;;;;20.80;19.20;;;;;27.79;100.00;98580.31;6269109;27;96972;-67
2023/09/12 06:51:59;;;;;;;;;18.00;16.50;;;;;28.18;100.00;98578.91;6263694;27;96510;-67
2023/09/12 06:55:02;;;;;;;;;18.20;17.00;;;;;28.49;100.00;98583.09;6267421;27;96828;-68
2023/09/12 06:58:06;;;;;;;;;17.00;16.00;;;;;28.77;100.00;98584.03;6283357;27;97151;-68
2023/09/12 07:01:09;;;;;;;;;23.40;20.40;;;;;28.94;100.00;98592.09;6267268;27;96525;-67
2023/09/12 07:04:12;;;;;;;;;18.00;16.40;;;;;29.23;100.00;98599.28;6269605;27;96596;-69
2023/09/12 07:07:23;;;;;;;;;15.60;15.00;;;;;29.43;100.00;98592.78;6281564;27;98112;-67
2023/09/12 07:10:26;;;;;;;;;18.00;17.00;;;;;29.57;100.00;98593.19;6259166;27;99105;-67
2023/09/12 07:13:29;;;;;;;;;17.40;16.40;;;;;29.79;100.00;98594.59;6241499;27;96646;-67
2023/09/12 07:16:33;;;;;;;;;16.60;16.60;;;;;29.96;100.00;98552.59;6241189;27;96735;-68
2023/09/12 07:19:36;;;;;;;;;17.00;16.00;;;;;30.50;100.00;98590.94;6259324;27;96977;-68
2023/09/12 07:22:41;;;;;;;;;17.00;15.00;;;;;30.69;100.00;98584.66;6260860;27;96354;-68
2023/09/12 07:25:44;;;;;;;;;19.40;17.40;;;;;31.03;100.00;98591.41;6242020;27;97191;-68
2023/09/12 07:28:47;;;;;;;;;20.00;16.00;;;;;31.61;100.00;98593.09;6261445;27;96626;-68
2023/09/12 07:31:53;;;;;;;;;21.00;16.00;;;;;32.05;100.00;98587.97;6261099;27;97615;-68
2023/09/12 07:34:56;;;;;;;;;18.60;17.00;;;;;32.22;100.00;98595.84;6260593;27;97284;-68
2023/09/12 07:38:01;;;;;;;;;13.20;13.20;;;;;32.47;100.00;98595.47;6243364;27;96427;-68
2023/09/12 07:41:04;;;;;;;;;17.00;16.00;;;;;32.84;100.00;98588.09;6263177;27;97570;-68
2023/09/12 07:44:10;;;;;;;;;19.75;18.75;;;;;33.27;100.00;98595.16;6281554;27;96436;-68
2023/09/12 07:47:14;;;;;;;;;16.00;16.00;;;;;33.75;100.00;98595.34;6252273;27;98629;-68
2023/09/12 07:50:17;;;;;;;;;19.00;17.00;;;;;34.29;100.00;98584.34;6269324;27;98469;-68
2023/09/12 07:53:22;;;;;;;;;17.00;15.50;;;;;34.82;100.00;98588.78;6269407;27;96408;-68
2023/09/12 07:56:25;;;;;;;;;18.00;16.40;;;;;34.74;100.00;98597.16;6288256;27;96442;-68
2023/09/12 07:59:29;;;;;;;;;16.00;16.00;;;;;34.67;100.00;98597.09;6270159;27;97052;-68
2023/09/12 08:02:32;;;;;;;;;15.00;15.00;;;;;34.62;100.00;98596.63;6268589;27;98622;-69
2023/09/12 08:05:35;;;;;;;;;15.20;15.20;;;;;34.99;100.00;98591.69;6287524;27;97579;-68
2023/09/12 08:08:40;;;;;;;;;16.00;14.50;;;;;35.33;100.00;98603.56;6288220;27;96421;-68
2023/09/12 08:11:47;;;;;;;;;19.00;16.00;;;;;35.61;100.00;98598.06;6287996;27;96511;-68
2023/09/12 08:14:50;;;;;;;;;18.00;16.00;;;;;35.92;100.00;98596.56;6269385;27;97527;-68
2023/09/12 08:17:55;;;;;;;;;16.50;15.50;;;;;35.64;100.00;98596.44;6269349;27;97398;-68
2023/09/12 08:20:58;;;;;;;;;16.60;16.00;;;;;35.52;100.00;98608.03;6287851;27;97592;-68
2023/09/12 08:24:03;;;;;;;;;18.20;17.00;;;;;35.68;100.00;98597.28;6287520;27;97170;-68
2023/09/12 08:27:07;;;;;;;;;15.50;14.50;;;;;36.10;100.00;98593.00;6268353;27;96824;-68
2023/09/12 08:30:12;;;;;;;;;15.00;14.67;;;;;36.43;100.00;98599.06;6269031;27;96515;-68
2023/09/12 08:33:16;;;;;;;;;18.40;17.00;;;;;36.86;100.00;98587.84;6288256;27;96459;-68
2023/09/12 08:36:20;;;;;;;;;18.00;18.00;;;;;37.34;100.00;98590.94;6264719;27;96675;-68
2023/09/12 08:39:27;;;;;;;;;16.20;16.00;;;;;37.73;100.00;98585.97;6258618;27;97150;-69
2023/09/12 08:42:32;;;;;;;;;15.00;15.00;;;;;38.24;100.00;98595.75;6247564;27;96958;-68
2023/09/12 08:45:36;;;;;;;;;16.00;15.50;;;;;38.36;100.00;98592.47;6265989;27;96568;-68
2023/09/12 08:48:41;;;;;;;;;16.00;16.00;;;;;38.24;100.00;98592.13;6264593;27;98655;-69
2023/09/12 08:51:45;;;;;;;;;17.00;16.00;;;;;38.27;100.00;98594.13;6266520;27;97078;-68
2023/09/12 08:54:50;;;;;;;;;17.00;16.00;;;;;38.51;99.96;98599.59;6250383;27;96887;-68
2023/09/12 08:57:56;;;;;;;;;14.60;14.00;;;;;39.04;98.20;98589.88;6272174;27;96629;-67
2023/09/12 09:00:59;;;;;;;;;15.00;14.00;;;;;39.25;96.57;98589.63;6229662;27;96991;-68
2023/09/12 09:04:04;;;;;;;;;14.00;13.00;;;;;39.47;94.88;98584.56;6245367;27;96648;-68
2023/09/12 09:07:08;;;;;;;;;15.00;13.00;;;;;39.38;91.87;98578.63;6245522;27;97046;-68
2023/09/12 09:10:18;;;;;;;;;15.00;15.00;;;;;39.53;93.16;98573.63;6261647;27;97188;-68
2023/09/12 09:13:28;;;;;;;;;14.00;14.00;;;;;39.70;97.00;98581.03;6264565;27;97158;-68
2023/09/12 09:16:32;;;;;;;;;15.00;14.80;;;;;40.02;93.25;98577.81;6245464;27;97586;-68
2023/09/12 09:19:41;;;;;;;;;17.60;15.40;;;;;40.14;87.82;98574.38;6264289;27;96632;-68
2023/09/12 09:22:57;;;;;;;;;13.20;13.00;;;;;40.14;87.81;98583.66;6263871;27;97158;-69
2023/09/12 09:26:01;;;;;;;;;18.00;16.80;;;;;40.08;86.42;98579.69;6263048;27;96653;-68
2023/09/12 09:29:06;;;;;;;;;16.00;14.60;;;;;40.38;85.44;98578.06;6251427;27;97300;-68
2023/09/12 09:32:18;;;;;;;;;15.00;15.00;;;;;40.41;85.92;98571.56;6282939;27;97280;-68
2023/09/12 09:35:21;;;;;;;;;16.00;15.00;;;;;40.14;89.05;98571.53;6272722;27;97483;-68
2023/09/12 09:38:24;;;;;;;;;17.00;16.00;;;;;40.37;88.59;98573.66;6290738;27;96647;-68
2023/09/12 09:41:29;;;;;;;;;15.00;14.40;;;;;40.76;88.82;98568.13;6272037;27;96984;-68
2023/09/12 09:44:33;;;;;;;;;17.00;15.00;;;;;40.57;83.47;98568.84;6270572;27;99696;-68
2023/09/12 09:47:36;;;;;;;;;12.60;12.00;;;;;39.60;86.47;98560.19;6271312;27;97442;-68
2023/09/12 09:50:40;;;;;;;;;14.80;13.60;;;;;39.12;85.97;98568.03;6272496;27;96366;-68
2023/09/12 09:53:43;;;;;;;;;13.20;12.20;;;;;39.24;85.93;98556.22;6270894;27;96373;-68
2023/09/12 09:56:49;;;;;;;;;18.00;16.00;;;;;39.65;88.60;98550.47;6265024;27;97532;-68
2023/09/12 09:59:53;;;;;;;;;14.75;14.00;;;;;40.10;86.33;98542.56;6274060;27;96751;-68
2023/09/12 10:02:57;;;;;;;;;17.75;16.00;;;;;39.56;85.71;98548.16;6265037;27;96892;-68
2023/09/12 10:06:05;;;;;;;;;14.00;13.00;;;;;39.22;86.88;98541.72;6267209;27;96868;-68
2023/09/12 10:09:11;;;;;;;;;15.75;13.75;;;;;39.24;85.34;98545.75;6277920;27;96457;-68
2023/09/12 10:12:16;;;;;;;;;13.00;11.80;;;;;39.32;87.31;98543.66;6258593;27;99906;-68
2023/09/12 10:15:22;;;;;;;;;14.20;13.80;;;;;39.36;85.44;98545.19;6256822;27;97638;-68
2023/09/12 10:18:28;;;;;;;;;13.50;13.50;;;;;39.22;85.52;98539.72;6278415;27;97498;-68
2023/09/12 10:21:35;;;;;;;;;14.60;13.00;;;;;39.54;83.56;98547.00;6289991;27;96386;-68
2023/09/12 10:24:41;;;;;;;;;15.40;15.00;;;;;39.68;84.18;98541.97;6245669;27;96636;-68
2023/09/12 10:27:46;;;;;;;;;16.50;15.50;;;;;39.61;84.37;98541.25;6264195;27;98017;-68
2023/09/12 10:30:50;;;;;;;;;15.40;15.00;;;;;39.68;86.74;98546.81;6264705;27;97550;-68
2023/09/12 10:33:54;;;;;;;;;13.80;12.80;;;;;39.52;89.47;98536.13;6249670;27;98507;-68
2023/09/12 10:36:59;;;;;;;;;14.00;13.00;;;;;39.61;86.71;98539.22;6270879;27;96518;-68
2023/09/12 10:40:06;;;;;;;;;13.40;13.00;;;;;39.62;85.42;98531.56;6289754;27;97565;-68
2023/09/12 10:43:13;;;;;;;;;13.00;13.00;;;;;39.48;83.85;98528.94;6290042;27;96387;-68
2023/09/12 10:46:16;;;;;;;;;13.00;12.00;;;;;39.76;82.61;98539.84;6271242;27;96463;-68
2023/09/12 10:49:19;;;;;;;;;13.75;12.00;;;;;39.97;78.50;98533.91;6253619;27;97688;-68
2023/09/12 10:52:26;;;;;;;;;10.75;9.75;;;;;40.38;77.54;98530.03;6288897;27;96403;-67
2023/09/12 10:55:29;;;;;;;;;14.00;14.00;;;;;40.46;74.91;98534.34;6269499;27;97515;-67
2023/09/12 10:58:34;;;;;;;;;13.80;12.20;;;;;40.60;76.89;98519.97;6257045;27;97531;-67
2023/09/12 11:01:38;;;;;;;;;12.00;12.00;;;;;41.03;73.93;98525.66;6267785;27;97432;-67
2023/09/12 11:04:42;;;;;;;;;12.60;11.60;;;;;41.34;74.32;98523.41;6271938;27;96870;-67
2023/09/12 11:07:46;;;;;;;;;14.40;12.40;;;;;41.46;70.89;98526.38;6250882;27;96560;-68
2023/09/12 11:11:20;;;;;;;;;11.00;11.00;;;;;41.37;72.29;98522.53;6261939;27;98641;-68
2023/09/12 11:14:26;;;;;;;;;13.40;13.00;;;;;41.43;71.71;98521.59;6264546;27;97205;-68
2023/09/12 11:17:29;;;;;;;;;13.80;12.40;;;;;41.47;72.33;98527.19;6286422;27;96578;-68
2023/09/12 11:20:53;;;;;;;;;12.80;11.80;;;;;41.62;74.26;98522.81;6259525;27;99780;-67
2023/09/12 11:23:57;;;;;;;;;14.00;13.40;;;;;41.74;72.67;98518.47;6271609;27;97892;-68
2023/09/12 11:27:01;;;;;;;;;14.40;12.00;;;;;41.82;74.98;98517.91;6260539;27;96708;-68
2023/09/12 11:30:07;;;;;;;;;12.75;12.75;;;;;40.80;77.34;98517.19;6258156;27;96777;-68
2023/09/12 11:33:12;;;;;;;;;14.80;13.00;;;;;40.46;74.77;98517.41;6268000;27;96645;-69
2023/09/12 11:36:15;;;;;;;;;12.00;11.40;;;;;40.60;69.69;98511.50;6278308;27;96609;-69
2023/09/12 11:39:31;;;;;;;;;12.80;10.80;;;;;39.77;70.04;98516.06;6283962;27;96709;-68
2023/09/12 11:42:40;;;;;;;;;13.75;12.75;;;;;40.04;69.13;98510.38;6284803;27;96595;-69
2023/09/12 11:45:45;;;;;;;;;13.00;12.00;;;;;40.38;70.48;98508.22;6278474;27;97483;-68
2023/09/12 11:48:49;;;;;;;;;13.00;12.00;;;;;40.62;72.11;98501.34;6252687;27;97108;-69
2023/09/12 11:51:54;;;;;;;;;13.00;13.00;;;;;40.81;67.62;98508.25;6251112;27;96301;-68
2023/09/12 11:54:57;;;;;;;;;12.00;11.00;;;;;40.72;71.77;98510.06;6256625;27;96845;-69
2023/09/12 11:58:01;;;;;;;;;13.00;12.20;;;;;41.05;71.12;98518.31;6261727;27;97068;-69
2023/09/12 12:01:05;;;;;;;;;15.60;14.00;;;;;41.14;73.81;98512.09;6282562;27;96341;-69
2023/09/12 12:04:10;;;;;;;;;12.80;11.80;;;;;41.03;72.18;98508.69;6268631;27;97183;-68
2023/09/12 12:07:14;;;;;;;;;13.20;12.00;;;;;40.55;73.69;98504.31;6268550;27;97577;-69
2023/09/12 12:10:17;;;;;;;;;12.00;11.50;;;;;40.65;74.39;98494.88;6266833;27;96456;-69
2023/09/12 12:13:21;;;;;;;;;12.00;12.00;;;;;40.81;71.76;98511.09;6268895;27;97100;-69
2023/09/12 12:16:27;;;;;;;;;13.80;13.80;;;;;41.01;70.82;98511.09;6268664;27;96673;-68
2023/09/12 12:19:31;;;;;;;;;14.40;12.40;;;;;40.64;74.96;98492.47;6284844;27;98558;-69
2023/09/12 12:22:34;;;;;;;;;14.40;13.00;;;;;40.52;72.59;98498.69;6268104;27;96772;-69
2023/09/12 12:25:37;;;;;;;;;12.20;12.20;;;;;40.70;71.48;98499.22;6261022;27;97546;-69
2023/09/12 12:28:41;;;;;;;;;12.00;12.00;;;;;40.50;70.13;98495.53;6275174;27;96871;-69
2023/09/12 12:31:46;;;;;;;;;15.00;13.00;;;;;40.12;73.16;98498.56;6278275;27;96636;-69
2023/09/12 12:34:50;;;;;;;;;13.00;12.00;;;;;39.51;74.30;98492.22;6281523;27;97257;-69
2023/09/12 12:38:13;;;;;;;;;13.00;12.00;;;;;39.16;76.87;98485.00;6275734;27;96524;-69
2023/09/12 12:41:22;;;;;;;;;11.80;10.80;;;;;39.34;78.07;98482.00;6265258;27;96882;-68
2023/09/12 12:44:35;;;;;;;;;13.00;12.00;;;;;39.38;78.86;98477.09;6264522;27;96283;-69
2023/09/12 12:47:39;;;;;;;;;11.50;11.00;;;;;39.52;76.46;98485.34;6266815;27;97331;-69
2023/09/12 12:50:42;;;;;;;;;12.00;11.00;;;;;39.56;75.57;98476.84;6266314;27;97018;-68
2023/09/12 12:53:48;;;;;;;;;14.40;14.00;;;;;39.75;76.27;98473.31;6261379;27;97542;-68
2023/09/12 12:56:56;;;;;;;;;12.00;11.25;;;;;39.63;72.88;98476.75;6266408;27;96788;-68
2023/09/12 13:00:00;;;;;;;;;12.40;11.60;;;;;39.31;74.93;98475.13;6248130;27;97003;-68
2023/09/12 13:03:05;;;;;;;;;10.80;10.00;;;;;39.24;75.02;98469.59;6272206;27;96952;-68
2023/09/12 13:06:13;;;;;;;;;11.80;11.00;;;;;39.20;74.86;98482.13;6244057;27;96701;-68
2023/09/12 13:09:16;;;;;;;;;15.50;13.50;;;;;39.33;75.55;98475.56;6265034;27;97015;-68
2023/09/12 13:12:20;;;;;;;;;13.00;11.60;;;;;39.49;72.96;98474.13;6259444;27;96923;-68
2023/09/12 13:15:23;;;;;;;;;12.40;11.40;;;;;39.40;75.01;98472.63;6254633;27;96817;-69
2023/09/12 13:18:28;;;;;;;;;12.00;11.00;;;;;39.51;75.31;98466.81;6269643;27;96635;-68
2023/09/12 13:21:32;;;;;;;;;13.50;12.50;;;;;39.39;74.08;98465.38;6240391;27;98527;-68
2023/09/12 13:24:36;;;;;;;;;13.00;12.00;;;;;38.95;71.36;98465.53;6277617;27;96818;-69
2023/09/12 13:27:39;;;;;;;;;13.00;12.00;;;;;38.84;76.37;98467.66;6265148;27;97596;-69
2023/09/12 13:30:42;;;;;;;;;12.00;12.00;;;;;38.47;73.99;98463.63;6265207;27;98670;-68
2023/09/12 13:33:47;;;;;;;;;11.00;11.00;;;;;38.23;72.77;98456.19;6283555;27;96351;-69
2023/09/12 13:36:50;;;;;;;;;11.00;11.00;;;;;38.31;77.31;98469.00;6284646;27;96488;-69
2023/09/12 13:40:12;;;;;;;;;14.20;13.20;;;;;38.51;79.89;98460.78;6290963;27;96508;-68
2023/09/12 13:43:15;;;;;;;;;16.00;14.00;;;;;38.61;79.83;98468.28;6290692;27;96450;-68
2023/09/12 13:46:19;;;;;;;;;13.20;12.00;;;;;38.64;77.53;98477.94;6287185;27;97535;-68
2023/09/12 13:49:23;;;;;;;;;14.25;13.25;;;;;38.54;77.61;98465.56;6269594;27;97711;-68
2023/09/12 13:52:27;;;;;;;;;16.60;13.60;;;;;38.58;79.40;98472.75;6274102;27;97180;-68
2023/09/12 13:55:30;;;;;;;;;14.00;13.00;;;;;38.44;74.99;98475.72;6259885;27;98162;-68
2023/09/12 13:58:34;;;;;;;;;13.80;13.80;;;;;38.22;75.10;98470.69;6251840;27;97248;-68
2023/09/12 14:01:44;;;;;;;;;14.00;13.00;;;;;37.92;79.76;98474.13;6264955;27;99657;-68
2023/09/12 14:04:49;;;;;;;;;14.60;13.60;;;;;37.91;80.49;98466.91;6266367;27;98574;-68